Hite, Utah
Current Conditions -  °F | °C
As of 11:35 PM on Friday 24 Oct 2014 (Local Time) from KBDG Reporting Station
Clear Clear  
Wind Chill: 46°   Ceiling: Unl
Heat Index: 49°   Visibility: 10mi
Dew Point: 31°   Wind: 7mph
Humidity: 51%   Direction: 360°N
Pressure: 30.38"   Gusts: NA
Location:  37.6208°N, 109.479°W
Report Text: KBDG 250535Z AUTO 36006KT 10SM CLR 09/00 A3038 RMK AO1 T00931004
Loading
Personal Weather Stations






























Interactive Weather Map
Tropical Storm Tracking
New forecast layout! Learn more

10-Day Weather Forecast

Advertisements
Track Severe Weather on mobile